Time;durP1;ratioP1;P1;durP2;ratioP2;P2;SDS_P1;SDS_P2;PMS_P1;PMS_P2;Temp;Humidity;BMP_temperature;BMP_pressure;BME280_temperature;BME280_humidity;BME280_pressure;Samples;Min_cycle;Max_cycle;Signal;HPM_P1;HPM_P2
2023/06/03 00:00:28;;;;;;;2.17;0.90;;;10.80;99.90;;;;;;5038626;28;20481;-88
2023/06/03 00:02:56;;;;;;;3.17;1.10;;;10.70;99.90;;;;;;5055164;28;20095;-87
2023/06/03 00:05:23;;;;;;;5.38;1.10;;;10.70;99.90;;;;;;5054843;28;20037;-88
2023/06/03 00:07:49;;;;;;;2.85;1.30;;;10.70;99.90;;;;;;5055639;28;20428;-88
2023/06/03 00:10:16;;;;;;;2.17;0.95;;;10.70;99.90;;;;;;5057783;28;20032;-88
2023/06/03 00:12:45;;;;;;;3.03;0.90;;;10.60;99.90;;;;;;5091301;28;20047;-87
2023/06/03 00:15:11;;;;;;;6.72;1.15;;;10.60;99.90;;;;;;5074722;28;20047;-88
2023/06/03 00:17:39;;;;;;;2.70;0.98;;;10.60;99.90;;;;;;5073955;28;20041;-87
2023/06/03 00:20:06;;;;;;;8.02;1.10;;;10.60;99.90;;;;;;5074607;28;20084;-87
2023/06/03 00:22:35;;;;;;;3.67;1.00;;;10.60;99.90;;;;;;5038432;28;20037;-87
2023/06/03 00:25:01;;;;;;;1.75;0.90;;;10.60;99.90;;;;;;5071009;28;20405;-88
2023/06/03 00:27:28;;;;;;;2.60;0.93;;;10.50;99.90;;;;;;5071116;28;20044;-88
2023/06/03 00:29:55;;;;;;;2.13;0.95;;;10.50;99.90;;;;;;5054333;28;20041;-88
2023/06/03 00:32:22;;;;;;;3.05;0.90;;;10.50;99.90;;;;;;5038249;28;20102;-88
2023/06/03 00:34:48;;;;;;;2.47;1.00;;;10.50;99.90;;;;;;5053897;28;20033;-87
2023/06/03 00:37:15;;;;;;;2.40;1.05;;;10.50;99.90;;;;;;5054388;28;20187;-88
2023/06/03 00:39:42;;;;;;;2.30;0.85;;;10.50;99.90;;;;;;5044044;28;20169;-88
2023/06/03 00:42:09;;;;;;;3.85;1.02;;;10.40;99.90;;;;;;5057735;28;20047;-87
2023/06/03 00:44:35;;;;;;;3.08;1.08;;;10.40;99.90;;;;;;5057334;28;20050;-87
2023/06/03 00:47:03;;;;;;;1.88;0.95;;;10.30;99.90;;;;;;5091076;28;20037;-87
2023/06/03 00:49:31;;;;;;;2.85;0.93;;;10.30;99.90;;;;;;5057622;28;20048;-87
2023/06/03 00:51:58;;;;;;;4.13;1.10;;;10.30;99.90;;;;;;5057319;28;20040;-87
2023/06/03 00:54:26;;;;;;;2.60;1.00;;;10.30;99.90;;;;;;5090642;28;20457;-88
2023/06/03 00:56:53;;;;;;;2.20;0.77;;;10.30;99.90;;;;;;5073964;28;20084;-87
2023/06/03 00:59:20;;;;;;;2.20;1.10;;;10.20;99.90;;;;;;5074134;28;20550;-88
2023/06/03 01:01:47;;;;;;;3.30;1.30;;;10.20;99.90;;;;;;5056639;28;20123;-88
2023/06/03 01:04:17;;;;;;;2.28;0.82;;;10.10;99.90;;;;;;5057081;28;20143;-88
2023/06/03 01:06:55;;;;;;;2.60;0.93;;;10.10;99.90;;;;;;5090294;28;20047;-87
2023/06/03 01:09:44;;;;;;;2.47;1.00;;;10.10;99.90;;;;;;5090311;28;20036;-88
2023/06/03 01:12:36;;;;;;;6.45;1.00;;;10.10;99.90;;;;;;5107376;28;20072;-88
2023/06/03 01:15:08;;;;;;;3.00;1.13;;;10.00;99.90;;;;;;5090426;28;20041;-87
2023/06/03 01:17:45;;;;;;;3.33;1.10;;;10.00;99.90;;;;;;5073817;28;20080;-88
2023/06/03 01:20:12;;;;;;;3.45;1.00;;;10.00;99.90;;;;;;5090019;28;20063;-88
2023/06/03 01:22:41;;;;;;;3.30;1.20;;;9.90;99.90;;;;;;5070708;28;20040;-88
2023/06/03 01:25:10;;;;;;;3.03;1.17;;;9.90;99.90;;;;;;5070139;28;20041;-88
2023/06/03 01:27:38;;;;;;;4.85;1.40;;;9.90;99.90;;;;;;5070418;28;20033;-88
2023/06/03 01:30:10;;;;;;;2.70;1.00;;;9.90;99.90;;;;;;5053478;28;20628;-88
2023/06/03 01:32:38;;;;;;;3.88;1.20;;;9.90;99.90;;;;;;5084244;28;20753;-88
2023/06/03 01:35:07;;;;;;;2.67;0.98;;;9.80;99.90;;;;;;5090217;28;20075;-88
2023/06/03 01:37:34;;;;;;;3.85;1.20;;;9.80;99.90;;;;;;5057457;28;20040;-88
2023/06/03 01:40:04;;;;;;;2.58;1.00;;;9.80;99.90;;;;;;5056885;28;20064;-87
2023/06/03 01:42:31;;;;;;;3.40;0.95;;;9.70;99.90;;;;;;5089912;28;20515;-88
2023/06/03 01:44:58;;;;;;;4.15;1.20;;;9.70;99.90;;;;;;5073157;28;20036;-88
2023/06/03 01:47:25;;;;;;;2.30;0.93;;;9.70;99.90;;;;;;5073483;28;20394;-88
2023/06/03 01:49:53;;;;;;;5.82;1.30;;;9.70;99.90;;;;;;5073571;28;20044;-87
2023/06/03 01:52:20;;;;;;;3.17;1.20;;;9.60;99.90;;;;;;5084970;28;20033;-88
2023/06/03 01:54:46;;;;;;;2.92;1.20;;;9.60;99.90;;;;;;5037128;28;20044;-87
2023/06/03 01:57:13;;;;;;;2.55;1.20;;;9.50;99.90;;;;;;5053541;28;20041;-88
2023/06/03 01:59:40;;;;;;;2.50;1.10;;;9.50;99.90;;;;;;5053289;28;20045;-88
2023/06/03 02:02:06;;;;;;;2.35;1.10;;;9.40;99.90;;;;;;5036731;28;20131;-88
2023/06/03 02:04:33;;;;;;;3.33;1.13;;;9.40;99.90;;;;;;5037570;28;20048;-88
2023/06/03 02:07:00;;;;;;;2.80;1.20;;;9.30;99.90;;;;;;5053157;28;20068;-88
2023/06/03 02:09:28;;;;;;;4.75;1.25;;;9.30;99.90;;;;;;5070092;28;20044;-88
2023/06/03 02:11:56;;;;;;;2.75;1.33;;;9.20;99.90;;;;;;5053641;28;20076;-88
2023/06/03 02:14:25;;;;;;;3.03;1.27;;;9.20;99.90;;;;;;5071539;28;20045;-88
2023/06/03 02:16:59;;;;;;;2.88;1.08;;;9.10;99.90;;;;;;5085750;28;20052;-88
2023/06/03 02:19:26;;;;;;;2.83;1.30;;;9.00;99.90;;;;;;5069378;28;20053;-87
2023/06/03 02:21:57;;;;;;;2.25;1.13;;;9.00;99.90;;;;;;5053135;28;20090;-87
2023/06/03 02:24:24;;;;;;;2.47;1.10;;;8.90;99.90;;;;;;5050717;28;20128;-88
2023/06/03 02:26:52;;;;;;;2.80;1.10;;;8.90;99.90;;;;;;5073119;28;20131;-87
2023/06/03 02:29:22;;;;;;;2.88;1.20;;;8.90;99.90;;;;;;5056993;28;20044;-88
2023/06/03 02:31:50;;;;;;;3.08;1.52;;;8.80;99.90;;;;;;5073526;28;20037;-88
2023/06/03 02:34:16;;;;;;;3.50;1.30;;;8.70;99.90;;;;;;5067386;28;20048;-88
2023/06/03 02:36:43;;;;;;;2.13;1.20;;;8.70;99.90;;;;;;5040365;28;20041;-88
2023/06/03 02:39:11;;;;;;;2.40;1.30;;;8.60;99.90;;;;;;5056275;28;20087;-87
2023/06/03 02:41:40;;;;;;;3.55;1.42;;;8.60;99.90;;;;;;5056381;28;20044;-87
2023/06/03 02:44:07;;;;;;;3.47;1.40;;;8.60;99.90;;;;;;5073780;28;20048;-88
2023/06/03 02:46:34;;;;;;;2.60;1.13;;;8.50;99.90;;;;;;5073213;28;20041;-88
2023/06/03 02:49:06;;;;;;;5.70;1.30;;;8.50;99.90;;;;;;5055889;28;20120;-87
2023/06/03 02:51:33;;;;;;;3.95;1.30;;;8.50;99.90;;;;;;5039752;28;20037;-88
2023/06/03 02:53:59;;;;;;;2.47;1.00;;;8.40;99.90;;;;;;5039340;28;20382;-87
2023/06/03 02:56:26;;;;;;;2.30;1.10;;;8.40;99.90;;;;;;5039483;28;20045;-87
2023/06/03 02:58:54;;;;;;;2.17;1.17;;;8.40;99.90;;;;;;5055850;28;20041;-88
2023/06/03 03:01:22;;;;;;;2.88;1.25;;;8.30;99.90;;;;;;5040014;28;20036;-87
2023/06/03 03:03:49;;;;;;;2.55;1.23;;;8.30;99.90;;;;;;5039712;28;20795;-87
2023/06/03 03:06:16;;;;;;;3.38;1.10;;;8.30;99.90;;;;;;5071248;28;20209;-88
2023/06/03 03:08:43;;;;;;;4.07;1.73;;;8.30;99.90;;;;;;5076562;28;20036;-88
2023/06/03 03:11:09;;;;;;;3.80;1.27;;;8.30;99.90;;;;;;5059515;28;20071;-87
2023/06/03 03:13:36;;;;;;;3.03;1.20;;;8.30;99.90;;;;;;5059283;28;20455;-88
2023/06/03 03:16:03;;;;;;;3.20;1.10;;;8.30;99.90;;;;;;5065811;28;20064;-87
2023/06/03 03:18:30;;;;;;;3.40;1.30;;;8.30;99.90;;;;;;5039375;28;20095;-86
2023/06/03 03:20:57;;;;;;;3.80;1.50;;;8.20;99.90;;;;;;5055648;28;20048;-87
2023/06/03 03:23:25;;;;;;;5.68;1.10;;;8.30;99.90;;;;;;5039181;28;20045;-87
2023/06/03 03:25:51;;;;;;;3.25;1.38;;;8.20;99.90;;;;;;5057096;28;20029;-88
2023/06/03 03:28:19;;;;;;;3.53;1.42;;;8.20;99.90;;;;;;5055549;28;20634;-87
2023/06/03 03:30:49;;;;;;;1.95;1.05;;;8.20;99.90;;;;;;5055779;28;20037;-88
2023/06/03 03:33:17;;;;;;;3.17;1.27;;;8.30;99.90;;;;;;5072032;28;20049;-88
2023/06/03 03:35:44;;;;;;;3.63;1.25;;;8.30;99.90;;;;;;5056330;28;20052;-88
2023/06/03 03:38:11;;;;;;;2.83;1.30;;;8.30;99.90;;;;;;5058712;28;20040;-88
2023/06/03 03:40:38;;;;;;;3.08;1.20;;;8.30;99.90;;;;;;5075190;28;20477;-88
2023/06/03 03:43:13;;;;;;;2.45;1.20;;;8.30;99.90;;;;;;5091695;28;20040;-87
2023/06/03 03:45:40;;;;;;;3.05;1.40;;;8.30;99.90;;;;;;5091334;28;20036;-88
2023/06/03 03:48:13;;;;;;;4.20;1.35;;;8.30;99.90;;;;;;5074093;28;20489;-88
2023/06/03 03:50:48;;;;;;;3.15;1.40;;;8.30;99.90;;;;;;5091430;28;20040;-88
2023/06/03 03:53:18;;;;;;;4.60;1.52;;;8.30;99.90;;;;;;5074571;28;20080;-88
2023/06/03 03:55:50;;;;;;;2.47;1.30;;;8.30;99.90;;;;;;5092322;28;20055;-88
2023/06/03 03:58:25;;;;;;;3.88;1.42;;;8.40;99.90;;;;;;5091125;28;20072;-88
2023/06/03 04:01:00;;;;;;;4.35;1.60;;;8.50;99.90;;;;;;5108535;28;20040;-88
2023/06/03 04:03:29;;;;;;;;;;;8.50;99.90;;;;;;5076228;28;20078;-88
2023/06/03 04:05:56;;;;;;;4.75;1.38;;;8.50;99.90;;;;;;5091562;28;19916;-88
2023/06/03 04:08:38;;;;;;;4.65;1.75;;;8.50;99.90;;;;;;5043348;28;20089;-88
2023/06/03 04:11:07;;;;;;;4.15;1.30;;;8.60;99.90;;;;;;5071520;28;20091;-88
2023/06/03 04:13:36;;;;;;;4.15;1.40;;;8.70;99.90;;;;;;5054769;28;20537;-88
2023/06/03 04:16:11;;;;;;;2.63;1.35;;;8.70;99.90;;;;;;5070940;28;20766;-88
2023/06/03 04:18:40;;;;;;;4.45;1.30;;;8.80;99.90;;;;;;5072310;28;20132;-88
2023/06/03 04:21:18;;;;;;;3.35;1.25;;;8.90;99.90;;;;;;5071046;28;20087;-87
2023/06/03 04:23:45;;;;;;;2.67;1.20;;;8.90;99.90;;;;;;5055245;28;20519;-87
2023/06/03 04:26:15;;;;;;;3.65;1.30;;;9.00;99.90;;;;;;5054394;28;20106;-88
2023/06/03 04:28:41;;;;;;;3.30;1.20;;;9.10;99.90;;;;;;5039104;28;20041;-88
2023/06/03 04:31:08;;;;;;;2.70;1.30;;;9.20;99.90;;;;;;5053863;28;20386;-88
2023/06/03 04:33:35;;;;;;;2.05;1.10;;;9.20;99.90;;;;;;5037632;28;20505;-88
2023/06/03 04:36:01;;;;;;;5.38;1.30;;;9.30;99.90;;;;;;5038340;28;20044;-88
2023/06/03 04:38:28;;;;;;;4.30;1.50;;;9.40;99.90;;;;;;5042962;28;20625;-88
2023/06/03 04:40:55;;;;;;;3.53;1.45;;;9.40;99.90;;;;;;5037806;28;20068;-88
2023/06/03 04:43:22;;;;;;;4.70;1.30;;;9.50;99.90;;;;;;5053416;28;20041;-88
2023/06/03 04:45:49;;;;;;;4.75;1.50;;;9.60;99.90;;;;;;5037947;28;20037;-87
2023/06/03 04:48:16;;;;;;;3.42;1.45;;;9.60;99.90;;;;;;5037828;28;20041;-88
2023/06/03 04:50:44;;;;;;;3.58;1.27;;;9.70;99.90;;;;;;5038169;28;20036;-88
2023/06/03 04:53:11;;;;;;;3.92;1.52;;;9.70;99.90;;;;;;5058494;28;20052;-88
2023/06/03 04:55:43;;;;;;;4.00;1.40;;;9.70;99.90;;;;;;5073607;28;20076;-88
2023/06/03 04:58:11;;;;;;;5.50;1.40;;;9.80;99.90;;;;;;5090671;28;20036;-88
2023/06/03 05:00:40;;;;;;;2.88;1.10;;;9.80;99.90;;;;;;5057395;28;20762;-88
2023/06/03 05:03:11;;;;;;;4.30;1.25;;;9.90;99.90;;;;;;5054466;28;20083;-88
2023/06/03 05:05:44;;;;;;;3.30;1.20;;;9.90;99.90;;;;;;5054113;28;20044;-88
2023/06/03 05:08:10;;;;;;;5.93;1.30;;;10.00;99.90;;;;;;5054841;28;20037;-88
2023/06/03 05:10:37;;;;;;;3.50;1.35;;;10.00;99.90;;;;;;5065578;28;20085;-88
2023/06/03 05:13:08;;;;;;;2.15;1.10;;;10.10;99.90;;;;;;5074021;28;20037;-88
2023/06/03 05:15:35;;;;;;;4.38;1.55;;;10.10;99.90;;;;;;5107184;28;20048;-88
2023/06/03 05:18:04;;;;;;;4.60;1.52;;;10.20;99.90;;;;;;5073596;28;20044;-88
2023/06/03 05:20:31;;;;;;;3.58;1.48;;;10.10;99.90;;;;;;5087916;28;20493;-88
2023/06/03 05:22:58;;;;;;;3.40;1.23;;;10.30;99.90;;;;;;5071844;28;20044;-88
2023/06/03 05:25:25;;;;;;;3.83;1.38;;;10.40;99.90;;;;;;5037229;28;20076;-88
2023/06/03 05:27:52;;;;;;;3.55;1.33;;;10.40;99.90;;;;;;5054357;28;20052;-88
2023/06/03 05:30:18;;;;;;;4.70;1.50;;;10.50;99.90;;;;;;5053311;28;20041;-88
2023/06/03 05:32:45;;;;;;;3.70;1.40;;;10.60;99.90;;;;;;5054092;28;20068;-88
2023/06/03 05:35:12;;;;;;;3.17;1.40;;;10.60;99.90;;;;;;5073759;28;20040;-88
2023/06/03 05:37:38;;;;;;;3.72;1.50;;;10.70;99.90;;;;;;5089691;28;20036;-88
2023/06/03 05:40:06;;;;;;;3.13;1.38;;;10.80;99.90;;;;;;5047755;28;20056;-88
2023/06/03 05:42:33;;;;;;;4.65;1.48;;;10.90;99.90;;;;;;5037122;28;20070;-88
2023/06/03 05:45:00;;;;;;;3.38;1.17;;;11.00;99.90;;;;;;5037274;28;20040;-88
2023/06/03 05:47:27;;;;;;;2.58;1.35;;;11.00;99.90;;;;;;5054944;28;20032;-87
2023/06/03 05:49:53;;;;;;;5.90;1.52;;;11.20;99.90;;;;;;5057307;28;20036;-88
2023/06/03 05:52:20;;;;;;;3.03;1.13;;;11.30;99.90;;;;;;5073205;28;20040;-87
2023/06/03 05:54:47;;;;;;;3.67;1.63;;;11.40;99.90;;;;;;5057360;28;20044;-88
2023/06/03 05:57:14;;;;;;;3.83;1.40;;;11.50;99.90;;;;;;5056961;28;20051;-88
2023/06/03 05:59:40;;;;;;;6.25;1.50;;;11.50;99.90;;;;;;5056413;28;20106;-87
2023/06/03 06:02:07;;;;;;;4.15;1.40;;;11.70;99.90;;;;;;5056810;28;20510;-87
2023/06/03 06:04:34;;;;;;;2.80;1.27;;;11.70;99.90;;;;;;5056033;28;20052;-87
2023/06/03 06:07:00;;;;;;;3.42;1.30;;;11.80;99.90;;;;;;5073418;28;20037;-88
2023/06/03 06:09:27;;;;;;;3.72;1.30;;;11.80;99.90;;;;;;5049000;28;20481;-87
2023/06/03 06:11:54;;;;;;;3.90;1.20;;;11.90;99.90;;;;;;5040584;28;20045;-87
2023/06/03 06:14:21;;;;;;;2.78;1.38;;;12.00;99.90;;;;;;5040808;28;20041;-88
2023/06/03 06:16:47;;;;;;;3.40;1.10;;;12.10;99.90;;;;;;5040331;28;20104;-87
2023/06/03 06:19:14;;;;;;;3.97;1.20;;;12.10;99.90;;;;;;5056868;28;20196;-88
2023/06/03 06:21:41;;;;;;;2.83;1.30;;;12.20;99.90;;;;;;5040656;28;20631;-89
2023/06/03 06:24:07;;;;;;;3.13;1.13;;;12.30;99.90;;;;;;5056563;28;20456;-88
2023/06/03 06:26:34;;;;;;;3.80;1.50;;;12.40;99.90;;;;;;5039933;28;20037;-88
2023/06/03 06:29:01;;;;;;;7.28;1.33;;;12.40;99.90;;;;;;5056639;28;20713;-87
2023/06/03 06:31:28;;;;;;;2.67;1.13;;;12.60;99.90;;;;;;5057738;28;20040;-88
2023/06/03 06:33:55;;;;;;;3.08;1.20;;;12.60;99.90;;;;;;5060125;28;20041;-88
2023/06/03 06:36:38;;;;;;;3.80;1.63;;;12.70;99.90;;;;;;5076713;28;20526;-88
2023/06/03 06:39:20;;;;;;;6.13;1.35;;;12.70;99.90;;;;;;5093321;28;20036;-88
2023/06/03 06:41:47;;;;;;;3.28;1.10;;;12.80;99.90;;;;;;5091410;28;20059;-88
2023/06/03 06:44:13;;;;;;;2.17;1.10;;;13.00;99.90;;;;;;5059864;28;20187;-88
2023/06/03 06:46:40;;;;;;;3.40;1.30;;;13.20;99.90;;;;;;5059728;28;20040;-88
2023/06/03 06:49:10;;;;;;;2.80;1.30;;;13.30;99.90;;;;;;5060233;28;20044;-88
2023/06/03 06:51:36;;;;;;;2.55;1.25;;;13.50;99.90;;;;;;5093070;28;20036;-88
2023/06/03 06:54:03;;;;;;;3.72;1.20;;;13.60;99.90;;;;;;5059850;28;20189;-88
2023/06/03 06:56:30;;;;;;;4.68;1.30;;;13.80;99.90;;;;;;5076068;28;20051;-87
2023/06/03 06:58:57;;;;;;;3.92;1.40;;;13.90;99.90;;;;;;5059914;28;20420;-88
2023/06/03 07:01:24;;;;;;;2.80;1.13;;;14.00;99.90;;;;;;5070346;28;20047;-88
2023/06/03 07:03:51;;;;;;;2.58;1.10;;;14.20;99.90;;;;;;5039729;28;20128;-88
2023/06/03 07:06:18;;;;;;;7.05;1.10;;;14.30;99.90;;;;;;5039923;28;20521;-89
2023/06/03 07:08:45;;;;;;;3.10;1.05;;;14.40;99.90;;;;;;5045726;28;20179;-87
2023/06/03 07:11:11;;;;;;;2.63;1.10;;;14.50;99.90;;;;;;5068202;28;20059;-87
2023/06/03 07:13:38;;;;;;;3.85;1.10;;;14.60;99.90;;;;;;5046904;28;20068;-87
2023/06/03 07:16:05;;;;;;;2.72;0.85;;;14.70;99.90;;;;;;5053277;28;20045;-86
2023/06/03 07:18:33;;;;;;;6.53;1.10;;;14.80;99.90;;;;;;5070684;28;20057;-85
2023/06/03 07:21:00;;;;;;;2.70;0.82;;;15.00;99.90;;;;;;5055081;28;20135;-84
2023/06/03 07:23:28;;;;;;;2.78;1.00;;;15.00;99.90;;;;;;5071961;28;20102;-87
2023/06/03 07:25:56;;;;;;;3.47;0.77;;;15.20;99.90;;;;;;5054977;28;20045;-85
2023/06/03 07:28:30;;;;;;;2.97;0.93;;;15.30;99.90;;;;;;5055059;28;20036;-85
2023/06/03 07:30:59;;;;;;;1.83;0.70;;;15.50;99.90;;;;;;5089714;28;20082;-84
2023/06/03 07:33:29;;;;;;;3.28;0.75;;;15.60;99.90;;;;;;5091495;28;20135;-85
2023/06/03 07:36:01;;;;;;;3.25;0.88;;;15.70;99.90;;;;;;5091303;28;20040;-86
2023/06/03 07:38:37;;;;;;;2.95;0.90;;;15.80;99.90;;;;;;5091635;28;20040;-88
2023/06/03 07:41:08;;;;;;;2.70;0.70;;;15.90;99.30;;;;;;5087847;28;20044;-87
2023/06/03 07:43:38;;;;;;;7.10;0.90;;;16.10;99.90;;;;;;5088055;28;20041;-89
2023/06/03 07:46:05;;;;;;;3.47;0.90;;;16.20;99.90;;;;;;5070839;28;20045;-88
2023/06/03 07:48:39;;;;;;;3.33;0.80;;;16.30;99.90;;;;;;5057909;28;20481;-89
2023/06/03 07:51:07;;;;;;;1.42;0.77;;;16.40;98.70;;;;;;5089108;28;20052;-89
2023/06/03 07:53:37;;;;;;;2.97;0.70;;;16.60;99.40;;;;;;5091423;28;20098;-88
2023/06/03 07:56:09;;;;;;;2.88;0.73;;;16.70;99.50;;;;;;5073504;28;20044;-88
2023/06/03 07:58:37;;;;;;;1.67;0.80;;;16.70;98.50;;;;;;5071388;28;20512;-89
2023/06/03 08:01:05;;;;;;;2.80;0.90;;;16.80;99.10;;;;;;5071582;28;20098;-88
2023/06/03 08:03:32;;;;;;;2.33;1.00;;;17.00;98.80;;;;;;5038094;28;20949;-89
2023/06/03 08:06:00;;;;;;;1.70;0.80;;;17.20;98.80;;;;;;5070952;28;20044;-88
2023/06/03 08:08:32;;;;;;;2.45;1.10;;;17.30;98.40;;;;;;5055468;28;20098;-89
2023/06/03 08:11:00;;;;;;;4.53;0.95;;;17.40;97.90;;;;;;5073512;28;20044;-89
2023/06/03 08:13:27;;;;;;;2.03;0.85;;;17.60;97.80;;;;;;5088026;28;20040;-91
2023/06/03 08:15:54;;;;;;;2.63;1.10;;;17.70;97.60;;;;;;5087917;28;20049;-89
2023/06/03 08:18:47;;;;;;;3.47;1.10;;;17.90;97.70;;;;;;5087319;28;20049;-88
2023/06/03 08:21:14;;;;;;;3.85;0.88;;;18.10;95.70;;;;;;5091278;28;20047;-88
2023/06/03 08:23:41;;;;;;;2.35;1.00;;;18.20;97.00;;;;;;5067971;28;20037;-87
2023/06/03 08:26:10;;;;;;;2.30;0.90;;;18.40;96.50;;;;;;5059964;28;20044;-89
2023/06/03 08:28:40;;;;;;;2.92;0.90;;;18.60;96.00;;;;;;5071443;28;20055;-89
2023/06/03 08:31:07;;;;;;;2.78;0.82;;;18.70;95.00;;;;;;5070250;28;20045;-88
2023/06/03 08:33:34;;;;;;;1.58;0.80;;;18.80;95.90;;;;;;5072059;28;20048;-89
2023/06/03 08:36:01;;;;;;;1.88;0.80;;;19.00;95.60;;;;;;5037727;28;20493;-88
2023/06/03 08:38:28;;;;;;;2.55;0.77;;;19.10;95.50;;;;;;5070755;28;20041;-88
2023/06/03 08:40:55;;;;;;;2.20;0.75;;;19.30;95.50;;;;;;5053669;28;20045;-88
2023/06/03 08:43:26;;;;;;;3.50;0.77;;;19.40;94.70;;;;;;5077483;28;20045;-89
2023/06/03 08:45:59;;;;;;;0.95;0.70;;;19.40;94.00;;;;;;5090580;28;20044;-89
2023/06/03 08:48:43;;;;;;;1.95;0.90;;;19.30;93.60;;;;;;5090308;28;20043;-89
2023/06/03 08:51:13;;;;;;;2.83;0.90;;;19.20;92.40;;;;;;5090775;28;20040;-89
2023/06/03 08:53:51;;;;;;;2.80;0.98;;;19.10;93.60;;;;;;5066511;28;20555;-88
2023/06/03 08:56:19;;;;;;;2.08;0.88;;;19.10;92.60;;;;;;5073528;28;20044;-88
2023/06/03 08:59:00;;;;;;;3.20;0.70;;;19.20;93.70;;;;;;5074094;28;20041;-87
2023/06/03 09:01:29;;;;;;;2.30;0.90;;;19.20;93.30;;;;;;5090429;28;20047;-88
2023/06/03 09:03:57;;;;;;;5.57;0.90;;;19.20;93.60;;;;;;5089604;28;20044;-88
2023/06/03 09:06:24;;;;;;;2.67;0.90;;;19.20;93.90;;;;;;5090304;28;20040;-88
2023/06/03 09:08:53;;;;;;;2.33;0.80;;;19.10;94.10;;;;;;5051625;28;20067;-88
2023/06/03 09:11:22;;;;;;;2.00;0.90;;;18.90;94.00;;;;;;5106896;28;20040;-88
2023/06/03 09:13:49;;;;;;;2.70;1.02;;;18.80;94.00;;;;;;5073471;28;20040;-88
2023/06/03 09:16:17;;;;;;;2.05;0.85;;;18.60;93.70;;;;;;5073599;28;20507;-88
2023/06/03 09:18:44;;;;;;;2.33;0.90;;;18.50;93.80;;;;;;5064652;28;20140;-88
2023/06/03 09:21:11;;;;;;;7.13;0.73;;;18.30;94.00;;;;;;5053772;28;20045;-88
2023/06/03 09:23:39;;;;;;;4.55;0.93;;;18.20;93.80;;;;;;5053555;28;20053;-88
2023/06/03 09:26:06;;;;;;;1.83;0.80;;;18.00;93.70;;;;;;5064068;28;20067;-88
2023/06/03 09:28:36;;;;;;;1.98;0.70;;;18.00;94.10;;;;;;5069925;28;20068;-88
2023/06/03 09:31:05;;;;;;;3.33;0.88;;;18.10;93.90;;;;;;5086454;28;20056;-88
2023/06/03 09:33:32;;;;;;;2.38;0.93;;;18.20;93.60;;;;;;5069979;28;20124;-88
2023/06/03 09:36:25;;;;;;;1.75;0.77;;;18.30;93.60;;;;;;5053505;28;20041;-89
2023/06/03 09:38:56;;;;;;;1.33;0.73;;;18.60;92.70;;;;;;5067904;28;20405;-88
2023/06/03 09:41:28;;;;;;;1.38;0.80;;;18.80;93.00;;;;;;5053771;28;20447;-89
2023/06/03 09:44:01;;;;;;;1.77;0.68;;;19.00;92.80;;;;;;5073123;28;20063;-87
2023/06/03 09:46:30;;;;;;;2.90;0.85;;;19.30;92.60;;;;;;5074184;28;20037;-88
2023/06/03 09:49:16;;;;;;;3.78;0.80;;;19.50;92.80;;;;;;5058408;28;20044;-87
2023/06/03 09:51:48;;;;;;;2.55;0.82;;;19.60;91.20;;;;;;5077377;28;20060;-88
2023/06/03 09:54:23;;;;;;;5.20;1.00;;;19.70;92.20;;;;;;5093875;28;20048;-89
2023/06/03 09:56:51;;;;;;;2.78;0.90;;;19.80;91.80;;;;;;5094061;28;20113;-88
2023/06/03 09:59:25;;;;;;;2.05;0.80;;;19.90;91.80;;;;;;5076048;28;20079;-89
2023/06/03 10:01:54;;;;;;;1.75;0.80;;;20.00;91.00;;;;;;5061214;28;20560;-88
2023/06/03 10:04:24;;;;;;;4.45;0.90;;;20.20;91.80;;;;;;5057197;28;20048;-87
2023/06/03 10:07:10;;;;;;;1.90;0.73;;;20.20;91.30;;;;;;5073106;28;20041;-87
2023/06/03 10:09:37;;;;;;;2.42;0.90;;;20.30;90.50;;;;;;5073541;28;20489;-87
2023/06/03 10:12:05;;;;;;;3.05;0.90;;;20.30;91.20;;;;;;5092911;28;20041;-88
2023/06/03 10:14:31;;;;;;;3.83;0.90;;;20.50;91.20;;;;;;5093286;28;20401;-88
2023/06/03 10:17:08;;;;;;;3.10;0.82;;;20.50;90.70;;;;;;5075400;28;20037;-88
2023/06/03 10:19:39;;;;;;;4.45;1.00;;;20.60;90.90;;;;;;5093403;28;20060;-87
2023/06/03 10:22:08;;;;;;;3.30;1.00;;;20.70;91.00;;;;;;5074762;28;20071;-86
2023/06/03 10:24:42;;;;;;;3.13;0.85;;;20.80;90.70;;;;;;5071917;28;20206;-84
2023/06/03 10:27:10;;;;;;;1.88;0.88;;;20.80;90.20;;;;;;5089152;28;20041;-88
2023/06/03 10:29:37;;;;;;;8.57;0.90;;;20.90;90.50;;;;;;5072688;28;20123;-86
2023/06/03 10:32:09;;;;;;;1.45;0.70;;;21.00;90.50;;;;;;5085817;28;20051;-86
2023/06/03 10:34:41;;;;;;;2.30;0.82;;;21.10;90.10;;;;;;5092285;28;20052;-85
2023/06/03 10:37:10;;;;;;;2.15;1.00;;;21.30;90.00;;;;;;5093118;28;20044;-87
2023/06/03 10:39:36;;;;;;;5.50;0.98;;;21.30;90.10;;;;;;5091991;28;20044;-83
2023/06/03 10:42:05;;;;;;;2.33;1.00;;;21.40;89.80;;;;;;5080593;28;20486;-86
2023/06/03 10:44:35;;;;;;;2.38;0.98;;;21.50;89.10;;;;;;5088989;28;20046;-88
2023/06/03 10:47:08;;;;;;;10.05;0.80;;;21.50;88.80;;;;;;5055348;28;20111;-82
2023/06/03 10:49:43;;;;;;;3.25;0.90;;;21.50;87.80;;;;;;5071648;28;20391;-85
2023/06/03 10:52:38;;;;;;;1.95;0.98;;;21.50;85.60;;;;;;5079098;28;20119;-85
2023/06/03 10:55:42;;;;;;;2.00;0.70;;;21.60;85.80;;;;;;5092217;28;20103;-89
2023/06/03 10:58:17;;;;;;;2.00;0.80;;;21.60;86.30;;;;;;5092644;28;20040;-91
2023/06/03 11:01:03;;;;;;;1.98;0.80;;;21.60;86.40;;;;;;5088675;28;20036;-89
2023/06/03 11:03:32;;;;;;;3.38;1.08;;;21.60;84.00;;;;;;5116842;28;20071;-88
2023/06/03 11:06:21;;;;;;;3.70;0.82;;;21.70;87.00;;;;;;5118908;28;20029;-88
2023/06/03 11:09:02;;;;;;;1.77;0.80;;;21.60;82.60;;;;;;5070920;28;20119;-88
2023/06/03 11:11:41;;;;;;;2.72;0.90;;;21.60;83.20;;;;;;5074307;28;20079;-86
2023/06/03 11:14:28;;;;;;;2.40;1.00;;;21.50;85.10;;;;;;5083625;28;20108;-88
2023/06/03 11:16:58;;;;;;;3.60;0.93;;;21.40;85.50;;;;;;5070326;28;20047;-86
2023/06/03 11:19:37;;;;;;;4.65;1.13;;;21.50;85.50;;;;;;5086787;28;20060;-86
2023/06/03 11:22:08;;;;;;;3.38;0.80;;;21.40;84.90;;;;;;5084057;28;20037;-87
2023/06/03 11:24:38;;;;;;;1.63;0.90;;;21.60;85.90;;;;;;5101566;28;20532;-85
2023/06/03 11:27:13;;;;;;;3.30;0.98;;;21.70;85.60;;;;;;5087405;28;20136;-88
2023/06/03 11:29:46;;;;;;;4.13;1.02;;;21.80;84.90;;;;;;5079615;28;20040;-88
2023/06/03 11:32:15;;;;;;;3.58;0.93;;;21.70;82.40;;;;;;5079734;28;20449;-89
2023/06/03 11:34:43;;;;;;;2.97;0.80;;;21.70;84.30;;;;;;5057217;28;20040;-89
2023/06/03 11:37:15;;;;;;;2.72;1.00;;;21.60;83.40;;;;;;5069534;28;20043;-88
2023/06/03 11:40:07;;;;;;;4.00;0.98;;;21.70;84.50;;;;;;5046183;28;20118;-88
2023/06/03 11:42:54;;;;;;;2.22;0.88;;;21.90;83.70;;;;;;5084913;28;20087;-88
2023/06/03 11:45:21;;;;;;;1.85;0.75;;;21.90;82.70;;;;;;5086393;28;20053;-88
2023/06/03 11:47:48;;;;;;;2.40;1.00;;;21.80;84.30;;;;;;5087589;28;20045;-88
2023/06/03 11:50:16;;;;;;;1.77;0.85;;;21.90;84.60;;;;;;5067772;28;20040;-88
2023/06/03 11:52:42;;;;;;;5.50;1.17;;;22.00;84.50;;;;;;5087685;28;20056;-88
2023/06/03 11:55:09;;;;;;;1.92;0.80;;;22.10;84.80;;;;;;5097804;28;20045;-88
2023/06/03 11:58:22;;;;;;;5.15;1.48;;;22.10;83.80;;;;;;5084732;28;20076;-88
2023/06/03 12:01:16;;;;;;;2.20;1.10;;;22.10;83.50;;;;;;5102242;28;20044;-88
2023/06/03 12:04:02;;;;;;;1.90;0.80;;;22.00;80.20;;;;;;5091404;28;20516;-88
2023/06/03 12:06:36;;;;;;;4.28;1.00;;;22.00;81.30;;;;;;5052294;28;20476;-89
2023/06/03 12:09:03;;;;;;;4.55;1.00;;;22.00;81.10;;;;;;5037824;28;20512;-88
2023/06/03 12:11:31;;;;;;;3.28;1.10;;;22.00;82.10;;;;;;5071219;28;20044;-88
2023/06/03 12:13:58;;;;;;;3.05;1.20;;;21.90;82.20;;;;;;5071002;28;20041;-87
2023/06/03 12:16:33;;;;;;;2.40;0.98;;;21.80;81.40;;;;;;5071810;28;20044;-87
2023/06/03 12:19:04;;;;;;;3.20;0.80;;;21.80;81.30;;;;;;5068695;28;20084;-87
2023/06/03 12:21:31;;;;;;;4.05;0.90;;;21.70;81.70;;;;;;5107398;28;20072;-88
2023/06/03 12:23:59;;;;;;;5.03;1.20;;;21.70;82.20;;;;;;5089129;28;20048;-88
2023/06/03 12:26:26;;;;;;;3.50;0.90;;;21.80;82.60;;;;;;5061778;28;20040;-89
2023/06/03 12:29:03;;;;;;;2.40;0.90;;;21.90;82.20;;;;;;5090096;28;20477;-90
2023/06/03 12:31:30;;;;;;;2.53;0.90;;;22.00;82.60;;;;;;5079723;28;20037;-88
2023/06/03 12:34:03;;;;;;;3.08;0.77;;;22.00;82.60;;;;;;5053523;28;20568;-90
2023/06/03 12:36:46;;;;;;;3.20;1.25;;;22.10;81.70;;;;;;5067376;28;20036;-89
2023/06/03 12:39:13;;;;;;;2.15;0.95;;;22.10;81.50;;;;;;5099465;28;20037;-88
2023/06/03 12:41:52;;;;;;;2.42;1.00;;;22.20;81.60;;;;;;5088018;28;20559;-87
2023/06/03 12:44:19;;;;;;;3.78;1.10;;;22.10;78.90;;;;;;5103678;28;20076;-87
2023/06/03 12:47:06;;;;;;;5.53;0.95;;;22.10;80.80;;;;;;5058575;28;20033;-87
2023/06/03 12:50:26;;;;;;;3.17;1.00;;;21.90;78.80;;;;;;5089158;28;20041;-87
2023/06/03 12:52:53;;;;;;;1.10;0.70;;;21.80;79.70;;;;;;5065744;28;20049;-88
2023/06/03 12:55:26;;;;;;;2.88;1.00;;;21.80;81.10;;;;;;5053764;28;20114;-88
2023/06/03 12:57:55;;;;;;;3.20;0.82;;;21.70;80.60;;;;;;5061843;28;20045;-87
2023/06/03 13:00:22;;;;;;;3.08;0.82;;;21.80;81.00;;;;;;5102799;28;20041;-81
2023/06/03 13:02:57;;;;;;;3.17;1.02;;;21.90;81.80;;;;;;5070495;28;20044;-93
2023/06/03 13:05:27;;;;;;;4.15;0.98;;;21.90;79.30;;;;;;5093965;28;20072;-92